createdAt,value
2022-11-18T00:01:28.121Z,-0.20
2022-11-18T00:03:55.192Z,-0.16
2022-11-18T00:06:24.450Z,-0.10
2022-11-18T00:08:52.491Z,-0.11
2022-11-18T00:11:41.016Z,-0.04
2022-11-18T00:14:19.051Z,-0.02
2022-11-18T00:17:05.190Z,0.09
2022-11-18T00:19:37.330Z,0.06
2022-11-18T00:22:05.839Z,0.06
2022-11-18T00:24:33.129Z,0.15
2022-11-18T00:27:00.411Z,-0.01
2022-11-18T00:29:28.572Z,0.16
2022-11-18T00:31:56.431Z,0.08
2022-11-18T00:34:23.689Z,0.16
2022-11-18T00:36:50.600Z,0.18
2022-11-18T00:39:20.445Z,0.15
2022-11-18T00:42:06.658Z,0.12
2022-11-18T00:44:34.263Z,0.05
2022-11-18T00:47:01.165Z,0.02
2022-11-18T00:49:28.399Z,0.08
2022-11-18T00:51:55.323Z,0.06
2022-11-18T00:54:22.385Z,0.04
2022-11-18T00:56:49.329Z,0.00
2022-11-18T00:59:16.832Z,-0.06
2022-11-18T01:01:44.206Z,-0.20
2022-11-18T01:04:11.206Z,-0.26
2022-11-18T01:06:38.159Z,-0.32
2022-11-18T01:09:05.129Z,-0.42
2022-11-18T01:11:50.478Z,-0.29
2022-11-18T01:14:17.912Z,-0.27
2022-11-18T01:16:44.846Z,-0.23
2022-11-18T01:19:12.056Z,-0.28
2022-11-18T01:21:38.948Z,-0.32
2022-11-18T01:24:06.437Z,-0.42
2022-11-18T01:26:33.310Z,-0.49
2022-11-18T01:29:00.293Z,-0.41
2022-11-18T01:31:27.390Z,-0.29
2022-11-18T01:33:54.284Z,-0.17
2022-11-18T01:36:27.447Z,-0.07
2022-11-18T01:38:55.501Z,0.02
2022-11-18T01:41:24.968Z,0.10
2022-11-18T01:44:43.213Z,0.20
2022-11-18T01:47:10.265Z,0.21
2022-11-18T01:49:37.156Z,0.18
2022-11-18T01:52:04.353Z,0.30
2022-11-18T01:54:34.678Z,0.25
2022-11-18T01:57:06.165Z,0.33
2022-11-18T01:59:36.340Z,0.43
2022-11-18T02:02:08.273Z,0.38
2022-11-18T02:04:35.300Z,0.50
2022-11-18T02:07:02.893Z,0.59
2022-11-18T02:09:30.150Z,0.60
2022-11-18T02:11:57.467Z,0.57
2022-11-18T02:14:28.360Z,0.49
2022-11-18T02:17:14.522Z,0.42
2022-11-18T02:20:09.543Z,0.38
2022-11-18T02:22:59.379Z,0.32
2022-11-18T02:25:52.748Z,0.32
2022-11-18T02:28:56.825Z,0.27
2022-11-18T02:31:45.573Z,0.18
2022-11-18T02:34:12.550Z,0.13
2022-11-18T02:36:40.752Z,0.07
2022-11-18T02:39:19.103Z,-0.02
2022-11-18T02:41:47.907Z,-0.06
2022-11-18T02:44:20.068Z,-0.11
2022-11-18T02:46:50.201Z,-0.14
2022-11-18T02:49:27.640Z,-0.20
2022-11-18T02:51:55.704Z,-0.25
2022-11-18T02:54:23.762Z,-0.31
2022-11-18T02:56:52.742Z,-0.28
2022-11-18T02:59:20.869Z,-0.25
2022-11-18T03:01:48.111Z,-0.26
2022-11-18T03:04:17.170Z,-0.25
2022-11-18T03:06:50.722Z,-0.27
2022-11-18T03:09:39.501Z,-0.32
2022-11-18T03:12:25.149Z,-0.27
2022-11-18T03:15:29.441Z,-0.22
2022-11-18T03:18:20.805Z,-0.20
2022-11-18T03:21:00.011Z,-0.19
2022-11-18T03:23:41.435Z,-0.22
2022-11-18T03:26:33.841Z,-0.19
2022-11-18T03:29:06.811Z,-0.17
2022-11-18T03:32:01.417Z,-0.15
2022-11-18T03:34:48.027Z,-0.17
2022-11-18T03:37:16.329Z,-0.10
2022-11-18T03:39:47.290Z,-0.05
2022-11-18T03:42:30.167Z,-0.06
2022-11-18T03:45:03.471Z,-0.09
2022-11-18T03:47:35.070Z,-0.05
2022-11-18T03:50:22.139Z,-0.02
2022-11-18T03:52:50.506Z,0.00
2022-11-18T03:55:24.089Z,-0.02
2022-11-18T03:57:56.612Z,-0.04
2022-11-18T04:00:23.922Z,-0.01
2022-11-18T04:02:50.953Z,0.02
2022-11-18T04:05:19.355Z,0.01
2022-11-18T04:08:07.749Z,0.02
2022-11-18T04:11:32.059Z,0.03
2022-11-18T04:13:59.535Z,0.04
2022-11-18T04:16:26.440Z,0.03
2022-11-18T04:18:53.389Z,0.03
2022-11-18T04:21:20.300Z,0.02
2022-11-18T04:23:47.340Z,-0.02
2022-11-18T04:26:14.857Z,-0.02
2022-11-18T04:28:41.727Z,0.00
2022-11-18T04:31:08.669Z,0.04
2022-11-18T04:33:35.533Z,0.03
2022-11-18T04:36:02.570Z,0.04
2022-11-18T04:38:29.579Z,0.06
2022-11-18T04:40:56.696Z,0.07
2022-11-18T04:43:23.698Z,0.11
2022-11-18T04:45:50.798Z,0.10
2022-11-18T04:48:19.268Z,0.09
2022-11-18T04:50:46.239Z,0.11
2022-11-18T04:53:13.209Z,0.09
2022-11-18T04:55:40.101Z,0.09
2022-11-18T04:58:07.095Z,0.10
2022-11-18T05:00:33.940Z,0.09
2022-11-18T05:03:01.137Z,0.10
2022-11-18T05:05:28.208Z,0.07
2022-11-18T05:07:55.340Z,0.04
2022-11-18T05:10:22.250Z,0.04
2022-11-18T05:12:49.216Z,0.03
2022-11-18T05:15:25.121Z,0.01
2022-11-18T05:17:52.367Z,0.02
2022-11-18T05:20:19.447Z,0.00
2022-11-18T05:22:46.431Z,0.02
2022-11-18T05:25:13.461Z,0.00
2022-11-18T05:27:40.620Z,0.04
2022-11-18T05:30:08.155Z,0.03
2022-11-18T05:32:35.190Z,0.01
2022-11-18T05:35:02.131Z,-0.01
2022-11-18T05:37:29.095Z,-0.01
2022-11-18T05:39:56.032Z,-0.01
2022-11-18T05:42:41.782Z,-0.04
2022-11-18T05:45:09.211Z,-0.07
2022-11-18T05:47:56.005Z,-0.06
2022-11-18T05:50:23.068Z,-0.03
2022-11-18T05:52:50.030Z,-0.01
2022-11-18T05:55:17.557Z,-0.01
2022-11-18T05:57:45.339Z,-0.01
2022-11-18T06:00:13.153Z,-0.03
2022-11-18T06:02:41.290Z,-0.03
2022-11-18T06:05:09.081Z,-0.04
2022-11-18T06:07:43.282Z,-0.07
2022-11-18T06:10:21.236Z,-0.07
2022-11-18T06:12:51.378Z,-0.06
2022-11-18T06:15:21.970Z,-0.07
2022-11-18T06:18:02.756Z,-0.07
2022-11-18T06:20:29.768Z,-0.06
2022-11-18T06:22:57.713Z,-0.14
2022-11-18T06:25:25.283Z,-0.16
2022-11-18T06:27:52.917Z,-0.17
2022-11-18T06:30:20.026Z,-0.22
2022-11-18T06:32:46.975Z,-0.23
2022-11-18T06:35:14.127Z,-0.19
2022-11-18T06:37:41.135Z,-0.19
2022-11-18T06:40:09.054Z,-0.20
2022-11-18T06:42:54.578Z,-0.20
2022-11-18T06:45:21.649Z,-0.20
2022-11-18T06:47:48.657Z,-0.18
2022-11-18T06:50:16.139Z,-0.20
2022-11-18T06:52:43.219Z,-0.24
2022-11-18T06:55:10.167Z,-0.15
2022-11-18T06:57:37.199Z,-0.03
2022-11-18T07:00:04.982Z,0.10
2022-11-18T07:02:32.046Z,0.03
2022-11-18T07:04:59.021Z,0.07
2022-11-18T07:07:26.311Z,0.16
2022-11-18T07:09:53.243Z,0.15
2022-11-18T07:12:20.294Z,0.22
2022-11-18T07:14:47.259Z,0.18
2022-11-18T07:17:14.753Z,0.20
2022-11-18T07:19:41.666Z,0.23
2022-11-18T07:22:08.656Z,0.26
2022-11-18T07:24:35.654Z,0.23
2022-11-18T07:27:02.697Z,0.24
2022-11-18T07:29:29.638Z,0.19
2022-11-18T07:31:56.562Z,0.15
2022-11-18T07:34:23.956Z,0.12
2022-11-18T07:36:50.977Z,0.30
2022-11-18T07:39:18.683Z,0.15
2022-11-18T07:41:45.714Z,0.18
2022-11-18T07:44:13.988Z,0.22
2022-11-18T07:46:41.370Z,0.21
2022-11-18T07:49:09.366Z,0.25
2022-11-18T07:51:38.886Z,0.21
2022-11-18T07:54:10.738Z,0.12
2022-11-18T07:56:38.245Z,0.21
2022-11-18T07:59:05.660Z,0.26
2022-11-18T08:01:32.792Z,0.26
2022-11-18T08:04:07.907Z,0.33
2022-11-18T08:06:35.659Z,0.24
2022-11-18T08:09:03.067Z,0.29
2022-11-18T08:11:30.140Z,0.33
2022-11-18T08:13:57.106Z,0.33
2022-11-18T08:16:25.514Z,0.42
2022-11-18T08:18:52.806Z,0.45
2022-11-18T08:21:21.651Z,0.52
2022-11-18T08:23:53.441Z,0.52
2022-11-18T08:26:20.731Z,0.38
2022-11-18T08:28:48.221Z,0.42
2022-11-18T08:31:25.341Z,0.35
2022-11-18T08:34:00.120Z,0.42
2022-11-18T08:36:28.946Z,0.30
2022-11-18T08:39:01.287Z,0.40
2022-11-18T08:41:32.538Z,0.49
2022-11-18T08:44:00.467Z,0.50
2022-11-18T08:46:27.744Z,0.53
2022-11-18T08:48:54.817Z,0.53
2022-11-18T08:51:21.804Z,0.57
2022-11-18T08:53:48.901Z,0.58
2022-11-18T08:56:20.803Z,0.50
2022-11-18T08:58:47.981Z,0.60
2022-11-18T09:01:15.312Z,0.61
2022-11-18T09:03:42.495Z,0.56
2022-11-18T09:06:10.666Z,0.53
2022-11-18T09:08:38.234Z,0.37
2022-11-18T09:11:14.083Z,0.38
2022-11-18T09:14:25.957Z,0.29
2022-11-18T09:16:29.878Z,0.37
2022-11-18T09:18:57.961Z,0.44
2022-11-18T09:21:25.770Z,0.54
2022-11-18T09:23:52.985Z,0.48
2022-11-18T09:26:22.789Z,0.42
2022-11-18T09:28:53.243Z,0.52
2022-11-18T09:31:20.227Z,0.50
2022-11-18T09:33:47.402Z,0.56
2022-11-18T09:36:25.331Z,0.58
2022-11-18T09:38:53.510Z,0.71
2022-11-18T09:41:36.364Z,0.73
2022-11-18T09:44:27.844Z,0.79
2022-11-18T09:47:16.866Z,0.96
2022-11-18T09:49:45.224Z,1.03
2022-11-18T09:52:19.312Z,1.03
2022-11-18T09:54:46.479Z,1.05
2022-11-18T09:57:40.327Z,1.04
2022-11-18T10:00:30.350Z,0.82
2022-11-18T10:03:10.169Z,1.02
2022-11-18T10:05:49.609Z,1.29
2022-11-18T10:08:27.850Z,1.47
2022-11-18T10:11:26.847Z,1.59
2022-11-18T10:14:20.007Z,0.96
2022-11-18T10:16:50.889Z,0.85
2022-11-18T10:19:29.363Z,1.10
2022-11-18T10:22:21.050Z,1.26
2022-11-18T10:24:53.918Z,1.26
2022-11-18T10:27:27.096Z,1.24
2022-11-18T10:29:58.163Z,1.21
2022-11-18T10:32:25.233Z,1.20
2022-11-18T10:34:58.456Z,0.86
2022-11-18T10:38:06.820Z,0.58
2022-11-18T10:40:29.530Z,-0.21
2022-11-18T10:42:56.853Z,-0.41
2022-11-18T10:45:23.774Z,-0.22
2022-11-18T10:47:57.093Z,-0.51
2022-11-18T10:50:55.416Z,-0.33
2022-11-18T10:53:41.920Z,-0.19
2022-11-18T10:56:12.208Z,-0.10
2022-11-18T10:58:44.850Z,-0.03
2022-11-18T11:01:27.369Z,0.03
2022-11-18T11:04:03.638Z,0.04
2022-11-18T11:06:38.355Z,0.08
2022-11-18T11:09:05.329Z,-0.37
2022-11-18T11:11:43.852Z,-0.29
2022-11-18T11:14:16.694Z,-0.30
2022-11-18T11:17:08.141Z,-0.16
2022-11-18T11:20:04.408Z,0.13
2022-11-18T11:22:31.812Z,0.27
2022-11-18T11:24:58.789Z,0.39
2022-11-18T11:30:24.249Z,0.62
2022-11-18T11:33:11.488Z,0.70
2022-11-18T11:36:15.910Z,0.76
2022-11-18T11:38:45.748Z,0.77
2022-11-18T11:41:31.854Z,0.62
2022-11-18T11:44:26.353Z,0.50
2022-11-18T11:47:40.809Z,0.48
2022-11-18T11:50:32.378Z,0.41
2022-11-18T11:53:05.463Z,0.41
2022-11-18T11:55:45.059Z,0.44
2022-11-18T11:58:53.909Z,0.53
2022-11-18T12:01:31.933Z,0.51
2022-11-18T12:04:23.566Z,0.16
2022-11-18T12:06:52.949Z,0.02
2022-11-18T12:09:20.189Z,-0.27
2022-11-18T12:11:55.369Z,-0.51
2022-11-18T12:14:44.254Z,-0.54
2022-11-18T12:17:19.602Z,-0.48
2022-11-18T12:19:46.649Z,-0.96
2022-11-18T12:22:14.560Z,-1.01
2022-11-18T12:24:43.171Z,-1.16
2022-11-18T12:27:10.114Z,-1.02
2022-11-18T12:30:04.061Z,-0.94
2022-11-18T12:32:31.009Z,-1.02
2022-11-18T12:34:59.898Z,-1.01
2022-11-18T12:37:26.789Z,-0.80
2022-11-18T12:39:57.848Z,-0.66
2022-11-18T12:43:03.336Z,-0.47
2022-11-18T12:45:57.763Z,-0.23
2022-11-18T12:48:27.723Z,-0.09
2022-11-18T12:50:57.285Z,-0.05
2022-11-18T12:53:45.651Z,-0.15
2022-11-18T12:56:22.682Z,-0.05
2022-11-18T12:58:55.401Z,-0.05
2022-11-18T13:01:25.718Z,-0.07
2022-11-18T13:03:53.693Z,-0.19
2022-11-18T13:06:29.528Z,-0.31
2022-11-18T13:08:59.995Z,-0.29
2022-11-18T13:11:51.103Z,-0.29
2022-11-18T13:15:00.391Z,-0.30
2022-11-18T13:17:52.200Z,-0.27
2022-11-18T13:20:21.233Z,-0.15
2022-11-18T13:23:11.504Z,-0.10
2022-11-18T13:25:38.729Z,-0.27
2022-11-18T13:28:11.872Z,-0.11
2022-11-18T13:30:50.198Z,-0.14
2022-11-18T13:33:17.284Z,-0.15
2022-11-18T13:35:44.434Z,-0.30
2022-11-18T13:38:27.948Z,-0.51
2022-11-18T13:41:12.715Z,-0.45
2022-11-18T13:43:39.923Z,-0.22
2022-11-18T13:46:15.018Z,-0.19
2022-11-18T13:48:47.598Z,-0.25
2022-11-18T13:51:14.725Z,-0.14
2022-11-18T13:53:43.504Z,-0.13
2022-11-18T13:56:20.501Z,-0.11
2022-11-18T14:01:37.804Z,-0.07
2022-11-18T14:04:26.400Z,-0.10
2022-11-18T14:06:53.641Z,-0.14
2022-11-18T14:09:30.288Z,-0.19
2022-11-18T14:15:22.423Z,-0.21
2022-11-18T14:17:51.477Z,-0.21
2022-11-18T14:20:18.987Z,-0.24
2022-11-18T14:22:48.617Z,-0.29
2022-11-18T14:25:35.301Z,-0.27
2022-11-18T14:28:22.906Z,-0.38
2022-11-18T14:31:00.027Z,-0.35
2022-11-18T14:33:34.562Z,-0.37
2022-11-18T14:36:08.767Z,-0.36
2022-11-18T14:38:43.563Z,-0.36
2022-11-18T14:41:43.931Z,-0.49
2022-11-18T14:44:13.647Z,-0.52
2022-11-18T14:46:43.062Z,-0.50
2022-11-18T14:49:16.378Z,-0.55
2022-11-18T14:51:44.598Z,-0.51
2022-11-18T14:54:18.254Z,-0.48
2022-11-18T14:56:49.591Z,-0.51
2022-11-18T14:59:18.704Z,-0.49
2022-11-18T15:01:45.965Z,-0.47
2022-11-18T15:04:13.795Z,-0.46
2022-11-18T15:06:40.794Z,-0.49
2022-11-18T15:09:08.353Z,-0.49
2022-11-18T15:11:35.829Z,-0.48
2022-11-18T15:14:03.408Z,-0.49
2022-11-18T15:16:31.725Z,-0.49
2022-11-18T15:19:00.962Z,-0.50
2022-11-18T15:21:28.307Z,-0.54
2022-11-18T15:23:55.645Z,-0.60
2022-11-18T15:26:24.697Z,-0.65
2022-11-18T15:28:53.734Z,-0.69
2022-11-18T15:31:21.338Z,-0.70
2022-11-18T15:33:50.220Z,-0.71
2022-11-18T15:36:22.341Z,-0.73
2022-11-18T15:38:50.159Z,-0.68
2022-11-18T15:41:19.220Z,-0.70
2022-11-18T15:43:46.543Z,-0.68
2022-11-18T15:46:14.449Z,-0.74
2022-11-18T15:48:41.879Z,-0.70
2022-11-18T15:51:11.853Z,-0.66
2022-11-18T15:53:39.819Z,-0.69
2022-11-18T15:56:45.490Z,-0.69
2022-11-18T15:59:14.223Z,-0.69
2022-11-18T16:01:43.138Z,-0.73
2022-11-18T16:04:11.967Z,-0.80
2022-11-18T16:06:39.128Z,-0.80
2022-11-18T16:09:06.955Z,-0.74
2022-11-18T16:11:52.759Z,-0.73
2022-11-18T16:14:21.794Z,-0.77
2022-11-18T16:16:50.372Z,-0.86
2022-11-18T16:19:22.633Z,-1.01
2022-11-18T16:21:54.459Z,-0.91
2022-11-18T16:24:25.638Z,-0.86
2022-11-18T16:26:52.854Z,-0.84
2022-11-18T16:29:21.034Z,-0.83
2022-11-18T16:31:53.085Z,-0.81
2022-11-18T16:34:27.139Z,-0.69
2022-11-18T16:36:59.778Z,-0.68
2022-11-18T16:39:27.694Z,-0.66
2022-11-18T16:42:00.765Z,-0.67
2022-11-18T16:44:33.860Z,-0.68
2022-11-18T16:47:00.772Z,-0.68
2022-11-18T16:49:28.380Z,-0.67
2022-11-18T16:51:56.714Z,-0.66
2022-11-18T16:54:31.403Z,-0.66
2022-11-18T16:56:59.493Z,-0.66
2022-11-18T16:59:28.873Z,-0.70
2022-11-18T17:01:57.612Z,-0.70
2022-11-18T17:04:25.971Z,-0.67
2022-11-18T17:06:54.081Z,-0.78
2022-11-18T17:09:23.555Z,-0.77
2022-11-18T17:11:51.615Z,-0.77
2022-11-18T17:14:20.222Z,-0.76
2022-11-18T17:16:47.357Z,-0.77
2022-11-18T17:19:20.468Z,-0.80
2022-11-18T17:21:48.246Z,-0.96
2022-11-18T17:24:18.657Z,-1.01
2022-11-18T17:26:46.250Z,-1.06
2022-11-18T17:29:13.619Z,-1.16
2022-11-18T17:31:41.874Z,-1.28
2022-11-18T17:34:13.377Z,-1.45
2022-11-18T17:36:40.889Z,-1.55
2022-11-18T17:39:11.051Z,-1.68
2022-11-18T17:41:40.728Z,-1.61
2022-11-18T17:44:09.667Z,-2.15
2022-11-18T17:46:38.497Z,-2.33
2022-11-18T17:49:07.496Z,-2.15
2022-11-18T17:51:34.871Z,-2.02
2022-11-18T17:54:02.216Z,-1.99
2022-11-18T17:56:29.893Z,-1.95
2022-11-18T17:58:57.255Z,-1.86
2022-11-18T18:01:24.326Z,-1.75
2022-11-18T18:03:51.581Z,-1.69
2022-11-18T18:06:21.249Z,-1.65
2022-11-18T18:08:48.529Z,-1.66
2022-11-18T18:11:20.012Z,-1.71
2022-11-18T18:14:06.932Z,-1.69
2022-11-18T18:16:34.736Z,-1.71
2022-11-18T18:19:03.391Z,-1.73
2022-11-18T18:21:31.005Z,-1.72
2022-11-18T18:24:01.103Z,-1.75
2022-11-18T18:26:31.713Z,-1.82
2022-11-18T18:29:00.906Z,-1.89
2022-11-18T18:31:28.387Z,-1.94
2022-11-18T18:33:55.588Z,-1.96
2022-11-18T18:36:25.209Z,-1.96
2022-11-18T18:38:53.450Z,-1.94
2022-11-18T18:41:34.700Z,-1.91
2022-11-18T18:44:02.448Z,-1.84
2022-11-18T18:46:31.050Z,-1.82
2022-11-18T18:49:12.297Z,-1.82
2022-11-18T18:51:43.087Z,-1.77
2022-11-18T18:54:13.505Z,-1.70
2022-11-18T18:56:40.876Z,-1.62
2022-11-18T18:59:10.248Z,-1.59
2022-11-18T19:01:38.515Z,-1.61
2022-11-18T19:04:07.709Z,-1.64
2022-11-18T19:06:59.432Z,-1.68
2022-11-18T19:09:26.607Z,-1.75
2022-11-18T19:12:12.640Z,-1.79
2022-11-18T19:14:40.501Z,-1.82
2022-11-18T19:17:12.711Z,-1.89
2022-11-18T19:20:02.128Z,-1.94
2022-11-18T19:22:35.049Z,-2.00
2022-11-18T19:25:04.039Z,-1.99
2022-11-18T19:27:31.201Z,-1.99
2022-11-18T19:29:58.592Z,-2.03
2022-11-18T19:32:26.842Z,-2.03
2022-11-18T19:34:55.049Z,-2.02
2022-11-18T19:37:22.978Z,-2.01
2022-11-18T19:39:50.642Z,-1.99
2022-11-18T19:42:17.905Z,-1.98
2022-11-18T19:44:45.354Z,-1.96
2022-11-18T19:47:12.280Z,-1.95
2022-11-18T19:49:39.181Z,-1.94
2022-11-18T19:52:06.110Z,-1.91
2022-11-18T19:54:33.212Z,-1.87
2022-11-18T19:57:01.104Z,-1.86
2022-11-18T19:59:28.245Z,-1.88
2022-11-18T20:01:55.162Z,-1.90
2022-11-18T20:04:22.422Z,-1.91
2022-11-18T20:06:49.978Z,-1.91
2022-11-18T20:09:18.653Z,-1.93
2022-11-18T20:11:47.223Z,-1.95
2022-11-18T20:14:17.241Z,-1.95
2022-11-18T20:16:46.472Z,-1.99
2022-11-18T20:19:14.356Z,-2.01
2022-11-18T20:21:43.585Z,-2.04
2022-11-18T20:24:14.848Z,-2.07
2022-11-18T20:26:44.885Z,-2.04
2022-11-18T20:29:13.137Z,-2.02
2022-11-18T20:31:41.340Z,-2.04
2022-11-18T20:34:14.616Z,-2.07
2022-11-18T20:36:42.693Z,-2.07
2022-11-18T20:39:15.040Z,-2.08
2022-11-18T20:41:42.709Z,-2.07
2022-11-18T20:46:29.547Z,-2.01
2022-11-18T20:48:59.501Z,-2.02
2022-11-18T20:51:28.367Z,-2.01
2022-11-18T20:53:58.235Z,-2.05
2022-11-18T20:56:26.768Z,-2.01
2022-11-18T20:58:53.986Z,-1.98
2022-11-18T21:01:23.330Z,-1.97
2022-11-18T21:03:55.933Z,-1.97
2022-11-18T21:06:25.017Z,-1.95
2022-11-18T21:08:56.414Z,-1.95
2022-11-18T21:11:23.541Z,-1.94
2022-11-18T21:14:09.125Z,-1.95
2022-11-18T21:16:36.088Z,-1.95
2022-11-18T21:19:04.756Z,-1.94
2022-11-18T21:22:10.218Z,-1.90
2022-11-18T21:24:37.950Z,-1.83
2022-11-18T21:27:05.125Z,-1.81
2022-11-18T21:29:33.448Z,-1.82
2022-11-18T21:32:01.701Z,-1.83
2022-11-18T21:34:29.314Z,-1.82
2022-11-18T21:36:56.339Z,-1.85
2022-11-18T21:39:24.803Z,-1.94
2022-11-18T21:41:55.618Z,-1.98
2022-11-18T21:44:23.436Z,-1.97
2022-11-18T21:46:50.502Z,-1.96
2022-11-18T21:49:18.242Z,-1.98
2022-11-18T21:51:45.626Z,-2.03
2022-11-18T21:54:13.091Z,-2.12
2022-11-18T21:56:39.976Z,-2.15
2022-11-18T21:59:07.884Z,-2.20
2022-11-18T22:01:34.982Z,-2.23
2022-11-18T22:04:03.940Z,-2.27
2022-11-18T22:06:33.741Z,-2.29
2022-11-18T22:09:02.191Z,-2.29
2022-11-18T22:11:29.300Z,-2.28
2022-11-18T22:13:56.274Z,-2.27
2022-11-18T22:16:24.738Z,-2.28
2022-11-18T22:18:59.122Z,-2.32
2022-11-18T22:21:29.520Z,-2.37
2022-11-18T22:23:59.526Z,-2.43
2022-11-18T22:26:26.654Z,-2.46
2022-11-18T22:28:55.115Z,-2.49
2022-11-18T22:31:23.200Z,-2.51
2022-11-18T22:33:51.463Z,-2.52
2022-11-18T22:36:20.592Z,-2.49
2022-11-18T22:38:47.657Z,-2.48
2022-11-18T22:41:35.120Z,-2.47
2022-11-18T22:44:06.956Z,-2.47
2022-11-18T22:46:35.370Z,-2.45
2022-11-18T22:49:02.380Z,-2.44
2022-11-18T22:51:29.359Z,-2.44
2022-11-18T22:54:16.027Z,-2.40
2022-11-18T22:56:43.597Z,-2.36
2022-11-18T22:59:11.870Z,-2.34
2022-11-18T23:01:38.903Z,-2.36
2022-11-18T23:04:06.246Z,-2.36
2022-11-18T23:06:33.296Z,-2.38
2022-11-18T23:09:00.302Z,-2.41
2022-11-18T23:11:45.768Z,-2.38
2022-11-18T23:14:12.690Z,-2.36
2022-11-18T23:16:42.058Z,-2.31
2022-11-18T23:19:14.004Z,-2.28
2022-11-18T23:21:41.275Z,-2.21
2022-11-18T23:24:11.713Z,-2.17
2022-11-18T23:26:39.047Z,-2.12
2022-11-18T23:29:06.244Z,-2.09
2022-11-18T23:31:33.285Z,-2.08
2022-11-18T23:34:00.893Z,-2.09
2022-11-18T23:36:28.207Z,-2.15
2022-11-18T23:38:55.391Z,-2.21
2022-11-18T23:41:22.565Z,-2.23
2022-11-18T23:43:49.737Z,-2.28
2022-11-18T23:46:18.197Z,-2.33
2022-11-18T23:48:45.744Z,-2.28
2022-11-18T23:51:18.526Z,-2.24
2022-11-18T23:53:48.042Z,-2.19
2022-11-18T23:56:16.839Z,-2.19
2022-11-18T23:58:49.188Z,-2.19
